Aviation Digital Data Service (ADDS)

Output produced by TAFs form (2330 UTC 25 May 2015)
found at http://www.aviationweather.gov/adds/tafs/
 
KPSF 252213Z 2522/2618 20008KT P6SM SCT120 
     TEMPO 2522/2524 24008G18KT P6SM BKN120 
     FM260000 22008KT P6SM SCT080 BKN120 
     FM261200 25010KT P6SM SCT060 BKN150